Wednesday, August 15, 2018, 4:48 AM GMT
Back to Local

CWFQ, Frelighsburg

Location: , , Canada Lat: 45.05
Local Time: 4:48 AM GMT ( 4:48 GMT) Lon: -72.833
Time Zone: GMT Elev: 498 ft

Show me the last for .
Show Coded

Time T Td Feel RH Dir Speed Gust Alt SLP Vis Weather Sky Remarks
2018-08-15 04:00 68 67 - 96 170° 2 - - 29.80 0 None
2018-08-15 03:00 70 69 76 94 160° 2 - - 29.79 0 None
2018-08-15 02:00 72 69 76 91 170° 3 - - 29.80 0 None
2018-08-15 01:00 73 67 77 83 200° 3 - - 29.80 0 None
2018-08-15 00:00 74 69 78 84 280° 2 - - 29.78 0 None
2018-08-14 23:00 76 70 80 79 270° 1 - - 29.77 0 None
2018-08-14 22:00 78 67 81 69 310° 1 - - 29.78 0 None
2018-08-14 21:00 80 66 83 62 310° 5 - - 29.78 0 None
2018-08-14 20:00 80 68 84 66 290° 3 - - 29.80 0 None
2018-08-14 19:00 81 70 84 69 310° 3 - - 29.82 0 None
2018-08-14 18:00 81 68 84 64 200° 3 - - 29.82 0 None
2018-08-14 17:00 78 69 82 73 160° 3 - - 29.85 0 None
2018-08-14 16:00 75 69 79 79 100° 5 - - 29.87 0 None
2018-08-14 15:00 73 70 77 88 70° 2 - - 29.88 0 None
2018-08-14 14:00 71 67 76 87 20° 2 - - 29.89 0 1-hr Precip Total: 0.01"
2018-08-14 13:00 70 67 - 90 140° 5 - - 29.90 0 None
2018-08-14 12:00 71 66 76 85 140° 1 - - 29.90 0 None
2018-08-14 11:00 70 66 - 88 - Calm - - 29.89 0 None
2018-08-14 10:00 70 65 76 83 140° 2 - - 29.89 0 None
2018-08-14 09:00 71 65 76 83 140° 5 - - 29.90 0 None
2018-08-14 08:00 70 65 - 86 140° 2 - - 29.90 0 None
2018-08-14 07:00 70 66 - 87 160° 2 - - 29.92 0 None
2018-08-14 06:00 71 66 76 85 160° 3 - - 29.93 0 None
2018-08-14 05:00 71 66 76 84 170° 2 - - 29.94 0 None

Support USWX by starting your Amazon purchase here.